• Join FlightAware (Why Join?)
  • Login
  • US Flag 
12:35AM EDT


 

Airport Tracker/Info


-or-


 

Live Flight TrackerFlight Track Log ✈ EJA922 ✈ 24-Sep-2013 ✈ KAPA - KRST

Flight Track Log - Related Links

Times and Time Zones

All times are in EDT time to prevent confusion due to time zone crossing. See the EJA922 flight status page for this flight to view local times or setup timezone preferences in your user account.

Time Position Orientation Groundspeed Altitude Reporting Facility
EDT Latitude Longitude Course Direction KTS MPH feet Rate Location/Type
02:23PM 39.5333 -104.8500 45° Northeast 190 219 7,600  Level Denver TRACON
02:24PM 39.5167 -104.8000 113° Southeast 242 278 8,100 1,020 Climbing Denver TRACON
02:25PM 39.5833 -104.7500 30° Northeast 299 344 9,700 1,620 Climbing Denver TRACON
02:26PM 39.6667 -104.7167 17° North 349 402 11,400 2,100 Climbing Denver TRACON
02:27PM 39.7667 -104.6667 21° North 383 441 14,000 2,940 Climbing Denver TRACON
02:28PM 39.8667 -104.6167 21° North 368 423 17,300 2,700 Climbing Denver TRACON
02:29PM 39.8771 -104.1295 45° Northeast  Level Estimated
02:29PM 39.9100 -104.5886 26° Northeast 366 421 18,600  Level Denver Center
02:30PM 40.0297 -104.5256 22° Northeast 382 440 20,400 1,440 Climbing Denver Center
02:31PM 40.1444 -104.4644 22° Northeast 413 475 21,600 1,080 Climbing Denver Center
02:32PM 40.2594 -104.4033 22° Northeast 439 505 22,700 1,140 Climbing Denver Center
02:33PM 40.3861 -104.3356 22° Northeast 455 524 24,000 1,140 Climbing Denver Center
02:34PM 40.4897 -104.2808 22° Northeast 457 526 25,100 1,260 Climbing Denver Center
02:35PM 40.6253 -104.1731 31° Northeast 473 544 26,700 1,380 Climbing Denver Center
02:36PM 40.7236 -104.0481 44° Northeast 489 563 28,000 1,140 Climbing Denver Center
02:38PM 40.8233 -103.9217 44° Northeast 499 574 29,300 1,200 Climbing Denver Center
02:39PM 40.9456 -103.7636 44° Northeast 514 592 30,800 1,440 Climbing Denver Center
02:40PM 41.0575 -103.6183 44° Northeast 521 600 32,300 1,380 Climbing Denver Center
02:41PM 41.1719 -103.4667 45° Northeast 522 601 34,000 1,140 Climbing Denver Center
02:42PM 41.2889 -103.3142 44° Northeast 528 608 35,000 1,020 Climbing Denver Center
02:43PM 41.3967 -103.1442 50° Northeast 541 623 36,200 1,320 Climbing Denver Center
02:44PM 41.4303 -102.9869 74° East 552 635 37,800 1,980 Climbing Denver Center
02:45PM 41.4728 -102.7422 77° East 533 613 40,300 1,500 Climbing Denver Center
02:46PM 41.5086 -102.5356 77° East 533 613 41,000 300 Climbing Denver Center
02:47PM 41.5403 -102.3436 78° East 548 631 41,000  Level Denver Center
02:48PM 41.5744 -102.1494 77° East 559 643 41,000  Level Denver Center
02:49PM 41.6133 -101.9194 77° East 566 651 41,000  Level Denver Center
02:50PM 41.6461 -101.7217 77° East 568 654 41,000  Level Denver Center
02:51PM 41.6797 -101.5233 77° East 569 655 41,000  Level Denver Center
02:52PM 41.7161 -101.2956 78° East 563 648 41,000  Level Denver Center
02:53PM 41.7522 -101.0658 78° East 563 648 41,000  Level Denver Center
02:54PM 41.7825 -100.8692 78° East 563 648 41,000  Level Denver Center
02:55PM 41.8186 -100.6400 78° East 562 647 41,000  Level Denver Center
02:56PM 41.8486 -100.4425 78° East 563 648 41,000  Level Denver Center
02:57PM 41.8781 -100.2461 79° East 561 646 41,000  Level Denver Center
02:58PM 41.9122 -100.0183 79° East 558 642 41,000  Level Denver Center
02:59PM 41.9417 -99.8228 78° East 559 643 41,000  Level Denver Center
03:00PM 41.9742 -99.5939 79° East 557 641 41,000  Level Denver Center
03:02PM 41.9981 -99.4300 79° East 556 640 41,000  Level Denver Center
03:02PM 42.0275 -99.2261 79° East 555 639 41,000  Level Minneapolis Center
03:03PM 42.0558 -99.0211 79° East 555 639 41,000  Level Minneapolis Center
03:04PM 42.0850 -98.8164 79° East 556 640 41,000  Level Minneapolis Center
03:05PM 42.1122 -98.6128 80° East 551 634 41,000  Level Minneapolis Center
03:06PM 42.1486 -98.4119 76° East 552 635 41,000  Level Minneapolis Center
03:07PM 42.2092 -98.2250 66° East 546 628 41,000  Level Minneapolis Center
03:09PM 42.2819 -98.0000 66° East 544 626 41,000  Level Minneapolis Center
03:10PM 42.3431 -97.8108 66° East 547 629 41,000  Level Minneapolis Center
03:11PM 42.4078 -97.6200 65° Northeast 543 625 41,000  Level Minneapolis Center
03:12PM 42.4683 -97.4297 67° East 548 631 41,000  Level Minneapolis Center
03:13PM 42.5283 -97.2433 66° East 542 624 41,000  Level Minneapolis Center
03:14PM 42.5875 -97.0556 67° East 541 623 41,000  Level Minneapolis Center
03:15PM 42.6475 -96.8669 67° East 541 623 41,000  Level Minneapolis Center
03:16PM 42.7147 -96.6472 67° East 542 624 41,000  Level Minneapolis Center
03:17PM 42.7736 -96.4614 67° East 540 621 41,000  Level Minneapolis Center
03:18PM 42.8308 -96.2736 67° East 540 621 41,000  Level Minneapolis Center
03:19PM 42.8886 -96.0856 67° East 541 623 41,000  Level Minneapolis Center
03:20PM 42.9456 -95.9003 67° East 537 618 41,000  Level Minneapolis Center
03:21PM 43.0017 -95.7136 68° East 535 616 41,000 -720 Level Minneapolis Center
03:22PM 43.0675 -95.4950 68° East 525 604 39,600 -1,260 Descending Minneapolis Center
03:23PM 43.1225 -95.3067 68° East 533 613 38,400 -1,200 Descending Minneapolis Center
03:24PM 43.1769 -95.1244 68° East 525 604 37,200 -1,200 Descending Minneapolis Center
03:25PM 43.2314 -94.9394 68° East 526 605 36,000 -1,200 Descending Minneapolis Center
03:26PM 43.2836 -94.7578 68° East 520 598 34,800 -1,020 Descending Minneapolis Center
03:27PM 43.3358 -94.5750 68° East 517 595 34,000 -420 Descending Minneapolis Center
03:28PM 43.4000 -94.3522 68° East 523 602 34,000 -180 Level Minneapolis Center
03:29PM 43.4458 -94.1917 68° East 529 609 33,700 -1,320 Descending Minneapolis Center
03:30PM 43.5081 -93.9639 69° East 535 616 31,300 -2,220 Descending Minneapolis Center
03:31PM 43.5633 -93.7747 68° East 534 615 29,200 -1,620 Descending Minneapolis Center
03:32PM 43.6153 -93.5881 69° East 529 609 28,000 -1,320 Descending Minneapolis Center
03:33PM 43.6642 -93.4086 69° East 511 588 26,500 -2,100 Descending Minneapolis Center
03:34PM 43.7094 -93.2419 69° East 482 555 23,800 -2,760 Descending Minneapolis Center
03:35PM 43.7544 -93.0764 69° East 471 542 20,900 -3,360 Descending Minneapolis Center
03:36PM 43.8050 -92.8928 69° East 454 522 16,900 -3,600 Descending Minneapolis Center
03:37PM 43.8381 -92.7631 71° East 390 449 13,500 -3,180 Descending Minneapolis Center
03:38PM 43.8708 -92.6436 69° East 359 413 10,400 -3,120 Descending Minneapolis Center
03:39PM 43.9114 -92.5481 59° Northeast 286 329 7,100 -2,880 Descending Minneapolis Center
03:40PM 43.9697 -92.4819 39° Northeast 267 307 4,500 -1,860 Descending Minneapolis Center
03:41PM 44.0256 -92.5211 333° Northwest 234 269 3,300 -780 Descending Minneapolis Center
03:43PM 44.0411 -92.5958 286° West 203 234 3,000 -180 Descending Minneapolis Center
03:44PM 43.9994 -92.6208 203° Southwest 178 205 3,000 -240 Level Minneapolis Center
03:45PM 43.9664 -92.5828 140° Southeast 142 163 2,600 -540 Descending Minneapolis Center
03:46PM 43.9447 -92.5506 133° Southeast 119 137 2,000 -600 Descending Minneapolis Center
03:47PM 43.9211 -92.5144 132° Southeast 118 136 1,400 -420 Descending Minneapolis Center
03:48PM 43.9022 -92.4869 134° Southeast 117 135 1,200 -240 Descending Minneapolis Center